Time;durP1;ratioP1;P1;durP2;ratioP2;P2;SDS_P1;SDS_P2;PMS_P1;PMS_P2;Temp;Humidity;BMP_temperature;BMP_pressure;BME280_temperature;BME280_humidity;BME280_pressure;Samples;Min_cycle;Max_cycle;Signal;HPM_P1;HPM_P2
2023/04/11 00:04:37;;;;;;;2.13;1.42;;;;;;;13.36;73.25;99688.97;10425491;28;20049;-80
2023/04/11 00:09:39;;;;;;;1.38;0.90;;;;;;;13.28;72.66;99678.16;10441073;28;20503;-78
2023/04/11 00:14:44;;;;;;;0.90;0.57;;;;;;;13.24;72.84;99677.66;10432215;28;20051;-79
2023/04/11 00:19:47;;;;;;;1.48;0.68;;;;;;;13.23;73.96;99685.81;10431685;28;20063;-79
2023/04/11 00:24:49;;;;;;;1.40;0.50;;;;;;;13.22;73.71;99668.94;10436755;28;20101;-79
2023/04/11 00:29:51;;;;;;;1.10;0.50;;;;;;;13.16;75.10;99656.19;10434218;28;20094;-79
2023/04/11 00:34:54;;;;;;;0.70;0.40;;;;;;;13.17;73.52;99671.22;10442161;28;20110;-78
2023/04/11 00:39:55;;;;;;;0.68;0.40;;;;;;;13.22;73.77;99662.75;10445029;28;20045;-79
2023/04/11 00:44:57;;;;;;;0.50;0.40;;;;;;;13.12;74.24;99651.31;10442071;28;20060;-79
2023/04/11 00:49:58;;;;;;;0.80;0.55;;;;;;;13.16;75.07;99615.28;10442142;28;20051;-76
2023/04/11 00:55:03;;;;;;;1.10;0.38;;;;;;;13.15;75.28;99632.28;10434756;28;20041;-78
2023/04/11 01:00:08;;;;;;;0.88;0.45;;;;;;;13.14;74.88;99652.84;10429390;28;20063;-79
2023/04/11 01:05:11;;;;;;;0.50;0.30;;;;;;;13.07;74.23;99665.13;10437044;28;20044;-78
2023/04/11 01:10:18;;;;;;;0.60;0.30;;;;;;;13.06;73.70;99685.69;10402011;28;20048;-78
2023/04/11 01:15:20;;;;;;;0.98;0.57;;;;;;;12.88;73.84;99676.81;10424960;28;20053;-78
2023/04/11 01:20:21;;;;;;;0.77;0.32;;;;;;;12.87;73.84;99707.19;10424306;28;20045;-78
2023/04/11 01:25:23;;;;;;;0.95;0.30;;;;;;;12.79;72.14;99715.97;10448551;28;20068;-78
2023/04/11 01:30:25;;;;;;;0.57;0.20;;;;;;;12.71;71.53;99730.06;10459821;28;20069;-80
2023/04/11 01:35:26;;;;;;;1.20;0.28;;;;;;;12.46;71.54;99712.94;10450617;28;20057;-80
2023/04/11 01:40:30;;;;;;;0.85;0.25;;;;;;;12.52;73.83;99703.47;10474007;28;20079;-78
2023/04/11 01:45:31;;;;;;;0.68;0.15;;;;;;;12.51;71.37;99701.81;10451750;28;20129;-80
2023/04/11 01:50:33;;;;;;;0.20;0.10;;;;;;;12.43;71.23;99694.56;10462241;28;20048;-79
2023/04/11 01:55:34;;;;;;;1.67;0.17;;;;;;;12.41;72.29;99690.34;10471265;28;20039;-80
2023/04/11 02:00:37;;;;;;;1.60;0.30;;;;;;;12.37;68.04;99690.66;10464369;28;20049;-77
2023/04/11 02:05:41;;;;;;;0.70;0.20;;;;;;;12.23;70.17;99690.31;10453996;28;20044;-80
2023/04/11 02:10:45;;;;;;;3.22;0.40;;;;;;;12.31;70.47;99695.72;10431780;28;20050;-79
2023/04/11 02:16:06;;;;;;;2.38;0.50;;;;;;;12.27;70.02;99703.19;10394958;28;20053;-78
2023/04/11 02:21:11;;;;;;;1.50;0.20;;;;;;;12.18;70.31;99686.25;10356803;28;21913;-81
2023/04/11 02:26:17;;;;;;;2.38;0.38;;;;;;;12.17;71.17;99700.59;10336824;28;20144;-79
2023/04/11 02:31:25;;;;;;;0.57;0.28;;;;;;;12.09;71.85;99702.31;10385255;28;20672;-78
2023/04/11 02:36:28;;;;;;;0.57;0.40;;;;;;;12.03;73.09;99704.56;10357373;28;20057;-78
2023/04/11 02:41:31;;;;;;;1.55;0.77;;;;;;;12.03;72.28;99715.22;10384933;28;20078;-81
2023/04/11 02:46:35;;;;;;;1.75;0.30;;;;;;;11.97;72.90;99699.81;10388322;28;20046;-78
2023/04/11 02:51:36;;;;;;;1.42;0.20;;;;;;;11.91;71.80;99711.03;10429180;28;20500;-77
2023/04/11 02:56:38;;;;;;;1.45;0.43;;;;;;;11.92;71.98;99712.72;10424017;28;20053;-76
2023/04/11 03:01:39;;;;;;;0.73;0.20;;;;;;;11.94;72.39;99710.78;10425264;28;20049;-77
2023/04/11 03:06:42;;;;;;;1.13;0.20;;;;;;;11.88;72.63;99707.81;10424141;28;20551;-79
2023/04/11 03:11:43;;;;;;;1.25;0.30;;;;;;;11.84;74.14;99715.25;10427317;28;20076;-77
2023/04/11 03:16:47;;;;;;;1.50;0.30;;;;;;;11.78;74.65;99699.84;10397120;28;20128;-77
2023/04/11 03:21:49;;;;;;;0.50;0.20;;;;;;;11.67;75.57;99704.34;10435432;28;20219;-76
2023/04/11 03:26:50;;;;;;;1.50;0.55;;;;;;;11.55;76.11;99700.19;10424374;28;20512;-77
2023/04/11 03:31:52;;;;;;;0.93;0.30;;;;;;;11.44;77.09;99669.22;10428595;28;20130;-77
2023/04/11 03:36:53;;;;;;;0.93;0.40;;;;;;;11.39;77.31;99671.44;10434520;28;20055;-78
2023/04/11 03:41:55;;;;;;;0.90;0.32;;;;;;;11.33;76.52;99685.34;10428091;28;20162;-75
2023/04/11 03:46:56;;;;;;;0.95;0.30;;;;;;;11.24;76.64;99680.88;10430855;28;20051;-77
2023/04/11 03:51:58;;;;;;;2.03;0.30;;;;;;;11.23;76.61;99688.03;10426425;28;20115;-78
2023/04/11 03:56:59;;;;;;;2.03;0.50;;;;;;;11.25;74.77;99714.53;10425913;28;20045;-77
2023/04/11 04:02:01;;;;;;;1.63;0.45;;;;;;;11.09;74.86;99697.28;10429666;28;20120;-79
2023/04/11 04:07:03;;;;;;;1.27;0.40;;;;;;;11.17;74.95;99695.72;10427902;28;20056;-78
2023/04/11 04:12:04;;;;;;;1.05;0.30;;;;;;;11.12;75.26;99682.84;10427997;28;20423;-77
2023/04/11 04:17:07;;;;;;;1.92;0.57;;;;;;;11.06;74.62;99688.72;10431267;28;20061;-78
2023/04/11 04:22:16;;;;;;;1.10;0.30;;;;;;;11.10;74.53;99695.47;10427177;28;20045;-78
2023/04/11 04:27:17;;;;;;;1.88;0.70;;;;;;;10.95;75.05;99695.03;10430804;28;20045;-77
2023/04/11 04:32:22;;;;;;;1.13;0.30;;;;;;;11.01;75.95;99714.94;10422266;28;20048;-76
2023/04/11 04:37:24;;;;;;;1.98;0.47;;;;;;;10.91;77.12;99714.94;10428221;28;20060;-79
2023/04/11 04:42:28;;;;;;;2.25;0.50;;;;;;;10.75;78.04;99723.47;10426962;28;20064;-79
2023/04/11 04:47:32;;;;;;;1.60;0.68;;;;;;;10.71;77.48;99719.41;10443691;28;20059;-80
2023/04/11 04:52:33;;;;;;;3.13;0.43;;;;;;;10.70;78.00;99723.03;10459479;28;20052;-81
2023/04/11 04:57:35;;;;;;;2.05;0.50;;;;;;;10.74;76.94;99725.28;10472104;28;20569;-79
2023/04/11 05:02:36;;;;;;;0.93;0.60;;;;;;;10.66;76.73;99718.94;10432433;28;20041;-78
2023/04/11 05:07:38;;;;;;;2.10;0.40;;;;;;;10.71;75.53;99732.72;10442431;28;20580;-81
2023/04/11 05:12:40;;;;;;;1.88;0.30;;;;;;;10.64;75.51;99735.06;10474436;28;20128;-81
2023/04/11 05:17:42;;;;;;;1.15;0.50;;;;;;;10.68;74.75;99740.97;10472527;28;20045;-80
2023/04/11 05:22:43;;;;;;;3.42;0.60;;;;;;;10.64;75.01;99739.56;10470180;28;20073;-81
2023/04/11 05:27:44;;;;;;;2.20;0.43;;;;;;;10.70;75.21;99753.16;10466139;28;20078;-80
2023/04/11 05:32:46;;;;;;;1.85;0.63;;;;;;;10.80;75.55;99742.53;10445868;28;20046;-78
2023/04/11 05:37:48;;;;;;;2.55;0.57;;;;;;;10.83;74.80;99742.25;10469674;28;20071;-78
2023/04/11 05:42:49;;;;;;;1.73;0.40;;;;;;;10.86;74.52;99749.13;10409420;28;20056;-78
2023/04/11 05:47:51;;;;;;;3.67;0.50;;;;;;;10.84;73.94;99767.03;10428109;28;20076;-80
2023/04/11 05:52:52;;;;;;;2.72;0.55;;;;;;;10.87;73.77;99769.44;10408691;28;20515;-74
2023/04/11 05:57:54;;;;;;;2.75;0.68;;;;;;;10.86;73.93;99773.94;10399195;28;20048;-73
2023/04/11 06:02:56;;;;;;;2.00;0.65;;;;;;;10.93;73.61;99780.41;10393455;28;20042;-71
2023/04/11 06:07:58;;;;;;;1.98;0.57;;;;;;;10.96;72.19;99793.44;10394777;28;20055;-75
2023/04/11 06:13:00;;;;;;;4.07;1.10;;;;;;;11.08;72.72;99807.47;10396931;28;20107;-72
2023/04/11 06:18:02;;;;;;;4.20;0.90;;;;;;;11.15;71.53;99807.75;10395130;28;20053;-76
2023/04/11 06:23:03;;;;;;;2.33;0.82;;;;;;;11.26;70.19;99812.97;10396663;28;20056;-74
2023/04/11 06:28:05;;;;;;;4.32;1.40;;;;;;;11.27;69.99;99825.31;10395245;28;20059;-74
2023/04/11 06:33:06;;;;;;;5.15;1.02;;;;;;;11.32;69.12;99823.06;10408692;28;20246;-76
2023/04/11 06:38:08;;;;;;;5.57;1.38;;;;;;;11.24;69.07;99833.56;10400648;28;20084;-75
2023/04/11 06:43:10;;;;;;;2.92;1.05;;;;;;;11.16;67.42;99838.75;10408774;28;20052;-73
2023/04/11 06:48:11;;;;;;;4.95;1.10;;;;;;;11.16;67.71;99833.41;10408683;28;20053;-76
2023/04/11 06:53:14;;;;;;;3.60;0.88;;;;;;;11.46;66.43;99850.28;10417894;28;20037;-74
2023/04/11 06:58:15;;;;;;;6.70;1.15;;;;;;;11.64;64.27;99853.09;10443461;28;20220;-76
2023/04/11 07:03:18;;;;;;;7.10;1.70;;;;;;;11.71;62.61;99856.91;10416977;28;20060;-74
2023/04/11 07:08:20;;;;;;;4.63;0.90;;;;;;;11.86;62.41;99867.97;10410093;28;20088;-74
2023/04/11 07:13:21;;;;;;;4.97;1.92;;;;;;;12.10;62.39;99869.38;10408971;28;20507;-75
2023/04/11 07:18:24;;;;;;;8.57;1.60;;;;;;;12.25;61.76;99881.31;10408165;28;20368;-73
2023/04/11 07:23:27;;;;;;;8.77;2.17;;;;;;;12.08;60.23;99892.69;10407744;28;20118;-75
2023/04/11 07:28:30;;;;;;;4.82;0.90;;;;;;;12.05;60.38;99876.97;10405936;28;20504;-76
2023/04/11 07:33:31;;;;;;;3.47;0.80;;;;;;;12.09;58.63;99883.72;10408758;28;20048;-75
2023/04/11 07:38:33;;;;;;;4.97;1.33;;;;;;;12.00;57.10;99890.75;10410340;28;20152;-76
2023/04/11 07:43:35;;;;;;;4.55;1.20;;;;;;;12.08;56.81;99890.03;10406850;28;20045;-76
2023/04/11 07:48:36;;;;;;;5.45;0.88;;;;;;;12.01;55.85;99887.94;10407079;28;20448;-77
2023/04/11 07:53:37;;;;;;;3.88;1.13;;;;;;;11.91;56.00;99887.06;10406574;28;20049;-73
2023/04/11 07:58:39;;;;;;;6.90;1.35;;;;;;;12.27;55.20;99886.50;10403929;28;20052;-73
2023/04/11 08:03:41;;;;;;;4.78;0.85;;;;;;;12.37;53.77;99890.00;10404302;28;20073;-72
2023/04/11 08:08:44;;;;;;;3.78;1.15;;;;;;;12.50;53.18;99895.00;10404731;28;20048;-74
2023/04/11 08:13:46;;;;;;;6.63;0.90;;;;;;;12.63;53.20;99886.69;10409917;28;20398;-76
2023/04/11 08:18:47;;;;;;;6.35;1.25;;;;;;;12.52;50.88;99923.25;10409271;28;20056;-75
2023/04/11 08:23:49;;;;;;;4.47;0.82;;;;;;;12.51;52.59;99915.38;10411153;28;20128;-76
2023/04/11 08:28:53;;;;;;;4.40;1.30;;;;;;;12.55;50.89;99916.78;10410658;28;20129;-77
2023/04/11 08:33:55;;;;;;;2.85;1.10;;;;;;;12.42;51.80;99927.75;10425088;28;20094;-76
2023/04/11 08:39:00;;;;;;;3.33;1.08;;;;;;;12.48;51.09;99926.34;10438374;28;20070;-74
2023/04/11 08:44:02;;;;;;;6.68;1.63;;;;;;;12.43;51.17;99923.25;10420236;28;20057;-76
2023/04/11 08:49:04;;;;;;;3.80;0.88;;;;;;;12.49;50.75;99920.00;10403904;28;20108;-74
2023/04/11 08:54:06;;;;;;;6.10;1.13;;;;;;;13.13;49.70;99922.88;10405951;28;20114;-74
2023/04/11 08:59:07;;;;;;;3.67;1.30;;;;;;;13.24;49.52;99928.00;10406277;28;20059;-73
2023/04/11 09:04:10;;;;;;;3.85;1.00;;;;;;;13.34;48.89;99926.16;10401315;28;20080;-74
2023/04/11 09:09:27;;;;;;;2.80;0.82;;;;;;;13.55;48.31;99933.09;10399689;28;20053;-74
2023/04/11 09:14:30;;;;;;;5.53;0.95;;;;;;;13.47;47.39;99935.69;10418969;28;20156;-77
2023/04/11 09:19:33;;;;;;;5.10;0.93;;;;;;;13.67;46.55;99939.91;10417276;28;20080;-75
2023/04/11 09:24:36;;;;;;;3.67;0.70;;;;;;;13.80;45.57;99942.22;10408755;28;20756;-74
2023/04/11 09:29:46;;;;;;;4.18;1.02;;;;;;;14.06;45.39;99947.63;10416819;28;20147;-76
2023/04/11 09:34:48;;;;;;;5.10;1.13;;;;;;;14.35;45.92;99948.38;10412929;28;20052;-75
2023/04/11 09:39:58;;;;;;;3.97;0.80;;;;;;;14.42;45.34;99955.63;10406368;28;20136;-72
2023/04/11 09:45:01;;;;;;;1.75;0.55;;;;;;;14.63;44.29;99951.78;10411428;28;20653;-74
2023/04/11 09:50:02;;;;;;;1.75;0.52;;;;;;;15.13;43.36;99937.69;10424962;28;20057;-76
2023/04/11 09:55:06;;;;;;;3.30;1.10;;;;;;;15.23;42.88;99956.31;10444629;28;20127;-73
2023/04/11 10:00:15;;;;;;;3.72;0.77;;;;;;;15.28;41.70;99955.81;10424976;28;20049;-74
2023/04/11 10:05:19;;;;;;;2.60;0.73;;;;;;;15.48;41.68;99946.50;10411950;28;20595;-73
2023/04/11 10:10:22;;;;;;;5.15;0.80;;;;;;;15.86;40.16;99955.00;10410532;28;20632;-73
2023/04/11 10:15:24;;;;;;;4.32;0.93;;;;;;;16.23;40.85;99945.66;10410443;28;20057;-74
2023/04/11 10:20:34;;;;;;;4.82;1.20;;;;;;;17.52;38.51;99937.63;10410208;28;20699;-75
2023/04/11 10:25:57;;;;;;;5.35;1.70;;;;;;;19.58;34.71;99931.13;10408311;28;20048;-75
2023/04/11 10:31:05;;;;;;;5.35;0.90;;;;;;;18.55;35.93;99931.00;10415948;28;20076;-73
2023/04/11 10:36:11;;;;;;;3.97;0.80;;;;;;;16.85;36.88;99930.78;10418704;28;20060;-74
2023/04/11 10:41:15;;;;;;;3.05;0.50;;;;;;;16.61;38.58;99937.88;10416457;28;20053;-73
2023/04/11 10:46:21;;;;;;;2.08;0.55;;;;;;;18.01;36.67;99934.66;10416024;28;20774;-75
2023/04/11 10:51:25;;;;;;;4.28;0.60;;;;;;;22.01;31.38;99932.56;10416496;28;20045;-75
2023/04/11 10:56:39;;;;;;;2.75;0.52;;;;;;;26.18;26.22;99924.91;10418519;28;20049;-74
2023/04/11 11:01:40;;;;;;;3.40;0.50;;;;;;;27.96;22.83;99928.19;10416531;28;20052;-73
2023/04/11 11:06:53;;;;;;;4.37;0.40;;;;;;;28.90;21.06;99924.78;10414978;28;20068;-74
2023/04/11 11:12:14;;;;;;;2.80;1.02;;;;;;;29.75;19.89;99923.63;10414146;28;20041;-74
2023/04/11 11:17:15;;;;;;;2.55;0.60;;;;;;;26.99;23.11;99915.09;10414341;28;20052;-73
2023/04/11 11:22:24;;;;;;;4.18;1.17;;;;;;;22.32;26.99;99902.16;10416335;28;20052;-74
2023/04/11 11:27:26;;;;;;;3.35;0.85;;;;;;;21.93;27.94;99906.47;10415547;28;20140;-75
2023/04/11 11:32:27;;;;;;;4.05;0.47;;;;;;;23.53;23.48;99913.56;10418053;28;20288;-75
2023/04/11 11:37:29;;;;;;;2.43;0.60;;;;;;;24.54;21.62;99900.06;10436593;28;20368;-72
2023/04/11 11:42:31;;;;;;;3.97;0.50;;;;;;;26.24;20.39;99902.97;10422519;28;20556;-71
2023/04/11 11:47:40;;;;;;;4.32;0.40;;;;;;;30.25;16.81;99908.75;10416042;28;20053;-75
2023/04/11 11:52:43;;;;;;;1.70;0.50;;;;;;;27.74;18.09;99909.75;10413087;28;20052;-74
2023/04/11 11:57:46;;;;;;;2.13;0.60;;;;;;;24.83;18.69;99908.59;10413617;28;20111;-74
2023/04/11 12:02:51;;;;;;;2.35;1.15;;;;;;;24.58;19.44;99912.22;10411762;28;20282;-74
2023/04/11 12:07:54;;;;;;;2.25;0.45;;;;;;;28.28;17.63;99906.59;10421724;28;20055;-74
2023/04/11 12:12:55;;;;;;;2.17;0.65;;;;;;;26.50;20.80;99916.38;10422284;28;20069;-72
2023/04/11 12:17:57;;;;;;;5.77;1.33;;;;;;;23.34;25.22;99925.34;10422268;28;20049;-71
2023/04/11 12:22:58;;;;;;;2.28;0.88;;;;;;;23.42;25.11;99920.50;10421650;28;20521;-74
2023/04/11 12:28:00;;;;;;;4.85;0.73;;;;;;;28.14;19.89;99903.34;10419205;28;20569;-75
2023/04/11 12:33:01;;;;;;;3.20;0.60;;;;;;;27.51;19.95;99900.56;10415297;28;20052;-75
2023/04/11 12:38:03;;;;;;;2.13;0.45;;;;;;;23.81;22.04;99906.94;10416054;28;20138;-75
2023/04/11 12:43:05;;;;;;;1.92;0.38;;;;;;;23.00;22.28;99916.44;10413856;28;20671;-76
2023/04/11 12:48:07;;;;;;;2.45;0.40;;;;;;;20.62;24.00;99899.25;10413273;28;20106;-74
2023/04/11 12:53:08;;;;;;;2.35;0.20;;;;;;;20.91;23.00;99892.81;10410741;28;20167;-74
2023/04/11 12:58:10;;;;;;;2.80;0.45;;;;;;;20.45;24.78;99899.56;10408755;28;20462;-71
2023/04/11 13:03:12;;;;;;;4.38;0.75;;;;;;;20.63;25.13;99904.47;10407848;28;20103;-71
2023/04/11 13:08:14;;;;;;;5.43;1.20;;;;;;;20.20;26.69;99903.72;10410798;28;20057;-71
2023/04/11 13:13:15;;;;;;;3.20;0.60;;;;;;;19.56;27.06;99916.16;10408380;28;21708;-71
2023/04/11 13:18:19;;;;;;;4.18;0.93;;;;;;;19.23;27.86;99912.03;10409401;28;20095;-71
2023/04/11 13:23:20;;;;;;;3.67;0.82;;;;;;;18.66;28.83;99900.03;10409125;28;20049;-71
2023/04/11 13:28:22;;;;;;;3.58;1.35;;;;;;;19.02;28.54;99882.28;10413750;28;20076;-72
2023/04/11 13:33:23;;;;;;;2.47;0.50;;;;;;;19.33;27.62;99892.84;10409230;28;20496;-73
2023/04/11 13:38:25;;;;;;;1.98;0.30;;;;;;;19.14;27.39;99901.53;10410260;28;20808;-74
2023/04/11 13:43:27;;;;;;;2.80;0.50;;;;;;;18.54;26.96;99890.75;10409599;28;20080;-73
2023/04/11 13:48:28;;;;;;;1.85;0.38;;;;;;;18.51;27.28;99880.31;10410381;28;20198;-73
2023/04/11 13:53:30;;;;;;;2.25;0.60;;;;;;;18.80;27.14;99894.84;10410002;28;20053;-74
2023/04/11 13:58:31;;;;;;;1.38;0.45;;;;;;;18.78;25.87;99897.72;10412278;28;20151;-73
2023/04/11 14:03:33;;;;;;;2.72;0.40;;;;;;;18.12;26.43;99905.59;10409549;28;20044;-71
2023/04/11 14:08:35;;;;;;;2.20;0.38;;;;;;;17.89;26.78;99898.38;10409148;28;20049;-70
2023/04/11 14:13:37;;;;;;;4.13;0.82;;;;;;;17.61;27.77;99915.03;10405595;28;20543;-71
2023/04/11 14:18:38;;;;;;;2.83;0.57;;;;;;;17.02;27.85;99910.09;10410060;28;20161;-74
2023/04/11 14:23:40;;;;;;;3.83;0.50;;;;;;;17.18;28.24;99890.38;10398759;28;20063;-74
2023/04/11 14:28:42;;;;;;;2.25;0.52;;;;;;;17.18;31.04;99909.19;10409861;28;20124;-73
2023/04/11 14:33:43;;;;;;;1.52;0.45;;;;;;;17.15;29.84;99906.84;10419992;28;20063;-73
2023/04/11 14:38:45;;;;;;;2.25;0.60;;;;;;;16.99;30.33;99901.56;10419846;28;20076;-74
2023/04/11 14:43:46;;;;;;;3.13;0.73;;;;;;;17.25;31.11;99885.97;10393140;28;20083;-75
2023/04/11 14:48:48;;;;;;;3.47;0.98;;;;;;;17.11;29.56;99889.38;10408132;28;20056;-73
2023/04/11 14:53:53;;;;;;;2.70;0.50;;;;;;;16.81;26.84;99889.13;10410580;28;20155;-76
2023/04/11 14:58:55;;;;;;;1.50;0.38;;;;;;;16.62;28.74;99890.38;10412078;28;20504;-70
2023/04/11 15:03:57;;;;;;;4.45;0.77;;;;;;;16.74;30.02;99906.97;10406167;28;20128;-76
2023/04/11 15:09:00;;;;;;;2.15;0.68;;;;;;;16.44;30.10;99899.47;10410170;28;20068;-76
2023/04/11 15:14:01;;;;;;;2.10;0.40;;;;;;;16.24;30.26;99909.75;10410735;28;20057;-76
2023/04/11 15:19:03;;;;;;;4.00;0.90;;;;;;;16.14;32.37;99898.34;10415224;28;20523;-77
2023/04/11 15:24:06;;;;;;;1.77;0.43;;;;;;;15.93;31.95;99906.03;10404219;28;21171;-74
2023/04/11 15:29:12;;;;;;;1.98;0.60;;;;;;;15.45;33.31;99895.88;10386945;28;20065;-74
2023/04/11 15:34:14;;;;;;;2.63;0.93;;;;;;;15.57;32.89;99923.25;10393157;28;20703;-72
2023/04/11 15:39:15;;;;;;;3.10;0.35;;;;;;;15.42;33.99;99914.97;10389800;28;20131;-75
2023/04/11 15:44:17;;;;;;;1.90;0.40;;;;;;;15.50;33.36;99917.69;10395950;28;20052;-73
2023/04/11 15:49:18;;;;;;;2.55;0.55;;;;;;;15.44;32.97;99894.19;10395291;28;20087;-74
2023/04/11 15:54:20;;;;;;;2.42;0.60;;;;;;;15.27;32.95;99887.94;10395801;28;20174;-73
2023/04/11 15:59:23;;;;;;;1.05;0.50;;;;;;;15.27;33.39;99890.63;10392765;28;20044;-73
2023/04/11 16:04:25;;;;;;;2.58;0.88;;;;;;;15.34;33.04;99890.81;10394477;28;20456;-73
2023/04/11 16:09:27;;;;;;;2.70;0.75;;;;;;;15.54;32.63;99886.84;10393074;28;20049;-76
2023/04/11 16:14:29;;;;;;;3.47;0.82;;;;;;;15.74;32.90;99883.84;10390465;28;20092;-73
2023/04/11 16:19:30;;;;;;;4.47;0.60;;;;;;;15.71;32.83;99884.19;10390446;28;20127;-73
2023/04/11 16:24:32;;;;;;;2.60;0.75;;;;;;;15.74;33.09;99886.53;10391184;28;20542;-76
2023/04/11 16:29:34;;;;;;;3.22;0.63;;;;;;;15.60;33.06;99873.75;10388531;28;20787;-75
2023/04/11 16:34:35;;;;;;;2.58;0.52;;;;;;;15.47;33.53;99856.31;10409230;28;20057;-75
2023/04/11 16:39:37;;;;;;;3.67;1.30;;;;;;;15.47;33.61;99869.72;10402622;28;20065;-76
2023/04/11 16:44:38;;;;;;;1.65;0.40;;;;;;;15.36;33.08;99873.56;10402319;28;20498;-73
2023/04/11 16:49:43;;;;;;;3.42;0.65;;;;;;;15.18;33.40;99871.00;10391572;28;20108;-76
2023/04/11 16:54:47;;;;;;;3.05;0.57;;;;;;;15.12;32.34;99865.47;10383763;28;20052;-76
2023/04/11 16:59:49;;;;;;;1.73;0.52;;;;;;;15.07;32.50;99863.25;10391066;28;20045;-78
2023/04/11 17:04:51;;;;;;;2.42;0.68;;;;;;;14.99;32.58;99863.22;10389688;28;20564;-74
2023/04/11 17:09:52;;;;;;;2.38;0.50;;;;;;;14.78;33.28;99843.03;10390320;28;20124;-79
2023/04/11 17:14:54;;;;;;;3.25;0.80;;;;;;;14.75;33.05;99842.53;10396589;28;20120;-78
2023/04/11 17:19:56;;;;;;;2.80;0.63;;;;;;;14.81;33.25;99863.31;10401582;28;20562;-77
2023/04/11 17:24:58;;;;;;;3.38;0.95;;;;;;;14.50;33.50;99850.38;10410481;28;21356;-75
2023/04/11 17:30:01;;;;;;;2.42;0.60;;;;;;;14.63;33.46;99861.53;10409734;28;20068;-78
2023/04/11 17:35:05;;;;;;;2.00;0.57;;;;;;;14.59;34.48;99870.91;10413380;28;20045;-77
2023/04/11 17:40:14;;;;;;;3.78;1.05;;;;;;;14.54;33.61;99867.84;10404019;28;20041;-77
2023/04/11 17:45:15;;;;;;;1.90;0.70;;;;;;;14.47;34.18;99872.13;10407230;28;20076;-76
2023/04/11 17:50:19;;;;;;;1.35;0.50;;;;;;;14.48;34.49;99880.00;10406926;28;20076;-79
2023/04/11 17:55:20;;;;;;;3.30;1.08;;;;;;;14.40;35.19;99882.66;10407386;28;20073;-77
2023/04/11 18:00:22;;;;;;;4.15;0.73;;;;;;;14.32;35.57;99874.56;10408696;28;20463;-77
2023/04/11 18:05:31;;;;;;;4.03;1.20;;;;;;;14.31;36.10;99879.06;10418476;28;20072;-75
2023/04/11 18:10:33;;;;;;;2.63;0.80;;;;;;;14.22;36.98;99879.19;10414751;28;20048;-75
2023/04/11 18:15:34;;;;;;;2.63;0.75;;;;;;;14.14;36.96;99877.25;10411883;28;20081;-80
2023/04/11 18:20:36;;;;;;;2.40;0.80;;;;;;;14.16;37.45;99891.34;10394969;28;20041;-77
2023/04/11 18:25:38;;;;;;;3.72;1.40;;;;;;;14.10;37.51;99886.63;10394907;28;20053;-75
2023/04/11 18:30:39;;;;;;;2.40;0.82;;;;;;;14.10;38.12;99898.16;10393665;28;20049;-77
2023/04/11 18:35:41;;;;;;;3.03;1.38;;;;;;;14.03;37.76;99885.56;10391142;28;20055;-78
2023/04/11 18:40:42;;;;;;;3.80;1.17;;;;;;;13.97;38.09;99876.31;10390169;28;20059;-77
2023/04/11 18:45:47;;;;;;;2.88;1.13;;;;;;;14.00;38.51;99891.22;10390117;28;20062;-78
2023/04/11 18:50:59;;;;;;;2.65;0.88;;;;;;;13.99;39.41;99885.03;10397273;28;20131;-78
2023/04/11 18:56:02;;;;;;;3.78;1.52;;;;;;;14.00;38.88;99892.06;10385871;28;20057;-74
2023/04/11 19:01:04;;;;;;;3.17;1.70;;;;;;;13.91;39.63;99888.47;10398633;28;20048;-76
2023/04/11 19:06:17;;;;;;;3.30;1.60;;;;;;;13.90;39.10;99893.97;10398446;28;20208;-77
2023/04/11 19:11:18;;;;;;;4.82;1.50;;;;;;;13.81;39.51;99893.06;10400494;28;20139;-74
2023/04/11 19:16:20;;;;;;;4.05;1.58;;;;;;;13.75;39.99;99881.16;10399651;28;20183;-76
2023/04/11 19:21:21;;;;;;;5.97;1.65;;;;;;;13.75;40.45;99874.94;10397760;28;20052;-76
2023/04/11 19:26:27;;;;;;;4.05;1.48;;;;;;;13.64;41.16;99870.66;10398177;28;20152;-75
2023/04/11 19:31:30;;;;;;;7.07;1.75;;;;;;;13.62;41.02;99875.34;10397574;28;21178;-76
2023/04/11 19:36:32;;;;;;;4.53;1.30;;;;;;;13.52;41.61;99858.53;10401105;28;20059;-73
2023/04/11 19:41:34;;;;;;;4.85;1.30;;;;;;;13.49;41.90;99859.66;10393296;28;20179;-75
2023/04/11 19:46:35;;;;;;;3.08;1.52;;;;;;;13.44;42.63;99854.78;10398029;28;20170;-75
2023/04/11 19:51:38;;;;;;;10.25;2.17;;;;;;;13.34;42.87;99843.31;10397867;28;20080;-76
2023/04/11 19:56:44;;;;;;;5.40;1.80;;;;;;;13.32;43.36;99844.44;10398606;28;20045;-76
2023/04/11 20:01:45;;;;;;;4.53;1.23;;;;;;;13.27;42.99;99834.19;10395593;28;20164;-74
2023/04/11 20:06:49;;;;;;;3.38;1.25;;;;;;;13.24;43.25;99837.16;10391671;28;20927;-77
2023/04/11 20:11:51;;;;;;;2.30;1.27;;;;;;;13.23;42.69;99840.81;10404137;28;20308;-79
2023/04/11 20:16:52;;;;;;;5.82;1.63;;;;;;;13.11;43.24;99837.53;10400239;28;20306;-78
2023/04/11 20:21:54;;;;;;;5.28;1.90;;;;;;;13.05;42.71;99830.13;10397918;28;20146;-75
2023/04/11 20:26:56;;;;;;;2.90;1.30;;;;;;;13.04;42.76;99815.88;10405585;28;20059;-74
2023/04/11 20:32:00;;;;;;;4.70;1.55;;;;;;;13.04;42.46;99821.22;10414150;28;20049;-73
2023/04/11 20:37:03;;;;;;;4.43;1.30;;;;;;;12.94;42.52;99804.44;10395990;28;20060;-75
2023/04/11 20:42:09;;;;;;;3.55;1.50;;;;;;;12.86;42.69;99799.00;10389548;28;20702;-74
2023/04/11 20:47:10;;;;;;;4.32;1.65;;;;;;;12.88;42.87;99800.53;10394052;28;20059;-75
2023/04/11 20:52:12;;;;;;;7.05;1.38;;;;;;;12.97;42.39;99806.81;10395854;28;20169;-74
2023/04/11 20:57:13;;;;;;;5.45;1.55;;;;;;;12.93;42.45;99786.72;10394302;28;20063;-77
2023/04/11 21:02:15;;;;;;;5.38;1.55;;;;;;;12.88;41.93;99783.66;10391039;28;20061;-76
2023/04/11 21:07:21;;;;;;;3.72;1.60;;;;;;;12.85;42.34;99775.94;10386801;28;20083;-76
2023/04/11 21:12:22;;;;;;;4.35;1.40;;;;;;;12.71;42.20;99772.78;10393171;28;20079;-72
2023/04/11 21:17:24;;;;;;;2.67;1.25;;;;;;;12.67;42.47;99766.09;10391109;28;20128;-75
2023/04/11 21:22:26;;;;;;;5.03;1.45;;;;;;;12.65;42.21;99762.69;10394452;28;20049;-74
2023/04/11 21:27:27;;;;;;;3.72;1.25;;;;;;;12.60;42.46;99748.13;10403175;28;20065;-76
2023/04/11 21:32:29;;;;;;;1.80;0.70;;;;;;;12.61;42.60;99749.78;10429342;28;20999;-75
2023/04/11 21:37:30;;;;;;;3.40;1.25;;;;;;;12.64;42.64;99739.69;10395395;28;20067;-77
2023/04/11 21:42:32;;;;;;;5.07;1.20;;;;;;;12.59;42.82;99741.94;10417587;28;20094;-75
2023/04/11 21:47:33;;;;;;;3.90;1.40;;;;;;;12.52;42.94;99730.16;10414390;28;20060;-74
2023/04/11 21:52:35;;;;;;;5.68;1.80;;;;;;;12.50;43.33;99716.97;10413958;28;20600;-74
2023/04/11 21:57:37;;;;;;;5.80;1.45;;;;;;;12.54;43.72;99728.22;10412502;28;20154;-75
2023/04/11 22:02:39;;;;;;;3.72;1.20;;;;;;;12.54;43.65;99718.34;10414258;28;20464;-73
2023/04/11 22:07:47;;;;;;;8.30;2.33;;;;;;;12.48;43.76;99702.13;10407701;28;20059;-73
2023/04/11 22:12:48;;;;;;;5.45;1.85;;;;;;;12.50;44.19;99702.78;10412892;28;20053;-75
2023/04/11 22:17:54;;;;;;;4.43;1.80;;;;;;;12.51;44.52;99693.81;10413077;28;20463;-73
2023/04/11 22:22:56;;;;;;;5.00;1.60;;;;;;;12.58;44.32;99697.56;10412044;28;20041;-77
2023/04/11 22:27:58;;;;;;;3.67;1.77;;;;;;;12.54;44.63;99682.81;10428913;28;20040;-74
2023/04/11 22:33:00;;;;;;;5.85;1.58;;;;;;;12.54;44.28;99677.50;10429667;28;20059;-73
2023/04/11 22:38:02;;;;;;;6.22;2.55;;;;;;;12.54;44.90;99680.16;10425634;28;20179;-73
2023/04/11 22:43:04;;;;;;;4.47;1.95;;;;;;;12.51;44.98;99680.47;10426170;28;20102;-75
2023/04/11 22:48:06;;;;;;;4.82;1.55;;;;;;;12.41;44.70;99658.31;10427083;28;20138;-75
2023/04/11 22:53:12;;;;;;;2.90;1.45;;;;;;;12.43;44.90;99659.00;10426862;28;20053;-74
2023/04/11 22:58:14;;;;;;;3.50;1.15;;;;;;;12.41;44.61;99658.31;10393119;23;20129;-73
2023/04/11 23:03:17;;;;;;;3.33;1.73;;;;;;;12.34;44.93;99642.91;10383989;28;20606;-71
2023/04/11 23:08:18;;;;;;;7.28;2.17;;;;;;;12.32;45.15;99639.53;10421558;28;20143;-71
2023/04/11 23:13:19;;;;;;;4.25;1.50;;;;;;;12.25;45.57;99627.81;10432769;28;20225;-73
2023/04/11 23:18:21;;;;;;;5.45;1.60;;;;;;;12.25;45.46;99622.47;10435841;28;20137;-72
2023/04/11 23:23:22;;;;;;;3.75;1.27;;;;;;;12.31;45.18;99621.00;10433553;28;20073;-73
2023/04/11 23:28:24;;;;;;;4.22;1.20;;;;;;;12.24;45.74;99619.94;10443547;28;20292;-73